sensor_id;sensor_type;location;lat;lon;timestamp;pressure;altitude;pressure_sealevel;temperature;humidity
19777;BME280;10047;42.490;26.012;2023-07-31T00:01:17;100021.84;;;22.93;100.00
19777;BME280;10047;42.490;26.012;2023-07-31T00:03:43;99943.13;;;22.83;100.00
19777;BME280;10047;42.490;26.012;2023-07-31T00:06:08;99995.56;;;22.97;100.00
19777;BME280;10047;42.490;26.012;2023-07-31T00:08:33;100016.22;;;23.42;100.00
19777;BME280;10047;42.490;26.012;2023-07-31T00:10:59;99965.28;;;22.87;100.00
19777;BME280;10047;42.490;26.012;2023-07-31T00:13:24;99981.72;;;23.08;100.00
19777;BME280;10047;42.490;26.012;2023-07-31T00:15:50;100022.16;;;23.33;100.00
19777;BME280;10047;42.490;26.012;2023-07-31T00:18:15;99968.56;;;22.89;100.00
19777;BME280;10047;42.490;26.012;2023-07-31T00:20:41;99952.00;;;23.12;100.00
19777;BME280;10047;42.490;26.012;2023-07-31T00:23:06;99961.34;;;23.03;100.00
19777;BME280;10047;42.490;26.012;2023-07-31T00:25:32;99991.84;;;23.33;100.00
19777;BME280;10047;42.490;26.012;2023-07-31T00:27:57;99953.56;;;23.03;100.00
19777;BME280;10047;42.490;26.012;2023-07-31T00:30:22;99938.50;;;22.86;100.00
19777;BME280;10047;42.490;26.012;2023-07-31T00:32:50;99989.50;;;23.08;100.00
19777;BME280;10047;42.490;26.012;2023-07-31T00:35:15;99990.50;;;23.27;100.00
19777;BME280;10047;42.490;26.012;2023-07-31T00:37:41;99969.91;;;23.15;100.00
19777;BME280;10047;42.490;26.012;2023-07-31T00:40:07;99965.72;;;23.03;100.00
19777;BME280;10047;42.490;26.012;2023-07-31T00:42:32;99940.16;;;22.87;100.00
19777;BME280;10047;42.490;26.012;2023-07-31T00:44:58;99899.81;;;22.29;100.00
19777;BME280;10047;42.490;26.012;2023-07-31T00:47:23;99947.38;;;22.73;100.00
19777;BME280;10047;42.490;26.012;2023-07-31T00:49:49;99945.59;;;22.84;100.00
19777;BME280;10047;42.490;26.012;2023-07-31T00:52:14;99896.13;;;22.65;100.00
19777;BME280;10047;42.490;26.012;2023-07-31T00:54:40;99867.31;;;22.14;100.00
19777;BME280;10047;42.490;26.012;2023-07-31T00:57:05;99928.16;;;22.75;100.00
19777;BME280;10047;42.490;26.012;2023-07-31T00:59:33;99824.91;;;21.71;100.00
19777;BME280;10047;42.490;26.012;2023-07-31T01:01:59;99876.50;;;22.07;100.00
19777;BME280;10047;42.490;26.012;2023-07-31T01:04:25;99899.06;;;22.38;100.00
19777;BME280;10047;42.490;26.012;2023-07-31T01:10:06;99838.59;;;21.95;100.00
19777;BME280;10047;42.490;26.012;2023-07-31T01:12:34;99900.63;;;22.30;100.00
19777;BME280;10047;42.490;26.012;2023-07-31T01:17:28;99888.47;;;22.53;100.00
19777;BME280;10047;42.490;26.012;2023-07-31T01:19:55;99844.81;;;22.26;100.00
19777;BME280;10047;42.490;26.012;2023-07-31T01:22:35;99817.88;;;21.95;100.00
19777;BME280;10047;42.490;26.012;2023-07-31T01:27:35;99854.31;;;22.36;100.00
19777;BME280;10047;42.490;26.012;2023-07-31T01:30:11;99886.88;;;22.18;100.00
19777;BME280;10047;42.490;26.012;2023-07-31T01:32:41;99811.38;;;21.56;100.00
19777;BME280;10047;42.490;26.012;2023-07-31T01:35:07;99830.59;;;22.09;100.00
19777;BME280;10047;42.490;26.012;2023-07-31T01:37:34;99889.53;;;22.50;100.00
19777;BME280;10047;42.490;26.012;2023-07-31T01:39:59;99842.59;;;22.10;100.00
19777;BME280;10047;42.490;26.012;2023-07-31T01:42:24;99864.72;;;22.25;100.00
19777;BME280;10047;42.490;26.012;2023-07-31T01:44:50;99883.16;;;22.54;100.00
19777;BME280;10047;42.490;26.012;2023-07-31T01:47:15;99875.28;;;22.44;100.00
19777;BME280;10047;42.490;26.012;2023-07-31T01:49:41;99813.13;;;22.22;100.00
19777;BME280;10047;42.490;26.012;2023-07-31T01:52:06;99809.28;;;21.95;100.00
19777;BME280;10047;42.490;26.012;2023-07-31T01:54:32;99847.66;;;22.12;100.00
19777;BME280;10047;42.490;26.012;2023-07-31T01:56:58;99787.75;;;21.72;100.00
19777;BME280;10047;42.490;26.012;2023-07-31T01:59:24;99795.50;;;21.72;100.00
19777;BME280;10047;42.490;26.012;2023-07-31T02:01:49;99860.47;;;22.13;100.00
19777;BME280;10047;42.490;26.012;2023-07-31T02:04:14;99848.94;;;22.17;100.00
19777;BME280;10047;42.490;26.012;2023-07-31T02:06:40;99819.03;;;21.80;100.00
19777;BME280;10047;42.490;26.012;2023-07-31T02:09:05;99843.19;;;21.81;100.00
19777;BME280;10047;42.490;26.012;2023-07-31T02:11:31;99785.13;;;21.39;100.00
19777;BME280;10047;42.490;26.012;2023-07-31T02:13:56;99788.56;;;21.50;100.00
19777;BME280;10047;42.490;26.012;2023-07-31T02:16:21;99798.19;;;21.59;100.00
19777;BME280;10047;42.490;26.012;2023-07-31T02:18:47;99849.72;;;21.74;100.00
19777;BME280;10047;42.490;26.012;2023-07-31T02:21:12;99819.00;;;21.69;100.00
19777;BME280;10047;42.490;26.012;2023-07-31T02:23:38;99869.41;;;21.87;100.00
19777;BME280;10047;42.490;26.012;2023-07-31T02:26:03;99811.13;;;21.48;100.00
19777;BME280;10047;42.490;26.012;2023-07-31T02:28:29;99871.66;;;21.92;100.00
19777;BME280;10047;42.490;26.012;2023-07-31T02:30:55;99825.38;;;21.76;100.00
19777;BME280;10047;42.490;26.012;2023-07-31T02:33:20;99850.59;;;21.85;100.00
19777;BME280;10047;42.490;26.012;2023-07-31T02:35:46;99849.28;;;21.91;100.00
19777;BME280;10047;42.490;26.012;2023-07-31T02:38:11;99895.13;;;22.12;100.00
19777;BME280;10047;42.490;26.012;2023-07-31T02:40:37;99822.31;;;21.71;100.00
19777;BME280;10047;42.490;26.012;2023-07-31T02:43:02;99914.88;;;22.24;100.00
19777;BME280;10047;42.490;26.012;2023-07-31T02:45:27;99919.81;;;22.27;100.00
19777;BME280;10047;42.490;26.012;2023-07-31T02:47:53;99915.47;;;22.06;100.00
19777;BME280;10047;42.490;26.012;2023-07-31T02:50:18;99923.47;;;22.36;100.00
19777;BME280;10047;42.490;26.012;2023-07-31T02:52:43;99917.47;;;22.02;100.00
19777;BME280;10047;42.490;26.012;2023-07-31T02:55:09;99868.50;;;21.99;100.00
19777;BME280;10047;42.490;26.012;2023-07-31T02:57:34;99879.09;;;21.96;100.00
19777;BME280;10047;42.490;26.012;2023-07-31T03:00:00;99924.31;;;22.14;100.00
19777;BME280;10047;42.490;26.012;2023-07-31T03:02:25;99887.91;;;21.83;100.00
19777;BME280;10047;42.490;26.012;2023-07-31T03:04:50;99904.16;;;21.85;100.00
19777;BME280;10047;42.490;26.012;2023-07-31T03:07:16;99937.47;;;22.00;100.00
19777;BME280;10047;42.490;26.012;2023-07-31T03:09:41;99895.88;;;21.34;100.00
19777;BME280;10047;42.490;26.012;2023-07-31T03:12:07;99948.78;;;21.65;100.00
19777;BME280;10047;42.490;26.012;2023-07-31T03:14:33;99885.00;;;21.52;100.00
19777;BME280;10047;42.490;26.012;2023-07-31T03:16:59;99977.25;;;21.88;100.00
19777;BME280;10047;42.490;26.012;2023-07-31T03:19:24;99925.44;;;21.42;100.00
19777;BME280;10047;42.490;26.012;2023-07-31T03:21:50;99967.22;;;21.49;100.00
19777;BME280;10047;42.490;26.012;2023-07-31T03:24:15;99955.91;;;21.50;100.00
19777;BME280;10047;42.490;26.012;2023-07-31T03:26:41;100006.25;;;21.57;100.00
19777;BME280;10047;42.490;26.012;2023-07-31T03:29:09;99968.31;;;21.34;100.00
19777;BME280;10047;42.490;26.012;2023-07-31T03:31:34;100019.88;;;21.48;100.00
19777;BME280;10047;42.490;26.012;2023-07-31T03:34:00;100053.03;;;21.67;100.00
19777;BME280;10047;42.490;26.012;2023-07-31T03:36:25;100023.59;;;21.33;100.00
19777;BME280;10047;42.490;26.012;2023-07-31T03:38:51;100035.91;;;21.53;100.00
19777;BME280;10047;42.490;26.012;2023-07-31T03:41:17;100108.84;;;21.94;100.00
19777;BME280;10047;42.490;26.012;2023-07-31T03:43:42;100124.53;;;22.04;100.00
19777;BME280;10047;42.490;26.012;2023-07-31T03:46:08;100133.47;;;22.34;100.00
19777;BME280;10047;42.490;26.012;2023-07-31T03:48:33;100093.22;;;22.07;100.00
19777;BME280;10047;42.490;26.012;2023-07-31T03:50:59;100093.94;;;22.09;100.00
19777;BME280;10047;42.490;26.012;2023-07-31T03:53:24;100120.94;;;22.17;100.00
19777;BME280;10047;42.490;26.012;2023-07-31T03:55:49;100125.03;;;22.55;100.00
19777;BME280;10047;42.490;26.012;2023-07-31T03:58:15;100132.78;;;22.43;100.00
19777;BME280;10047;42.490;26.012;2023-07-31T04:00:40;100128.78;;;22.39;100.00
19777;BME280;10047;42.490;26.012;2023-07-31T04:03:06;100100.00;;;22.20;100.00
19777;BME280;10047;42.490;26.012;2023-07-31T04:05:32;100144.84;;;22.56;100.00
19777;BME280;10047;42.490;26.012;2023-07-31T04:07:57;100149.25;;;22.66;100.00
19777;BME280;10047;42.490;26.012;2023-07-31T04:10:23;100152.19;;;22.62;100.00
19777;BME280;10047;42.490;26.012;2023-07-31T04:12:48;100139.47;;;22.92;100.00
19777;BME280;10047;42.490;26.012;2023-07-31T04:15:14;100135.34;;;22.67;100.00
19777;BME280;10047;42.490;26.012;2023-07-31T04:17:39;100135.59;;;22.86;100.00
19777;BME280;10047;42.490;26.012;2023-07-31T04:20:05;100095.53;;;22.33;100.00
19777;BME280;10047;42.490;26.012;2023-07-31T04:22:31;100105.38;;;22.52;100.00
19777;BME280;10047;42.490;26.012;2023-07-31T04:24:56;100143.25;;;23.10;100.00
19777;BME280;10047;42.490;26.012;2023-07-31T04:27:22;100131.94;;;22.89;100.00
19777;BME280;10047;42.490;26.012;2023-07-31T04:29:47;100140.44;;;23.02;100.00
19777;BME280;10047;42.490;26.012;2023-07-31T04:32:13;100088.69;;;22.67;100.00
19777;BME280;10047;42.490;26.012;2023-07-31T04:34:40;100126.75;;;23.00;100.00
19777;BME280;10047;42.490;26.012;2023-07-31T04:37:06;100137.00;;;23.23;100.00
19777;BME280;10047;42.490;26.012;2023-07-31T04:39:31;100118.28;;;22.98;100.00
19777;BME280;10047;42.490;26.012;2023-07-31T04:41:57;100074.19;;;22.76;100.00
19777;BME280;10047;42.490;26.012;2023-07-31T04:44:22;100071.47;;;22.77;100.00
19777;BME280;10047;42.490;26.012;2023-07-31T04:46:47;100130.53;;;23.29;100.00
19777;BME280;10047;42.490;26.012;2023-07-31T04:49:13;100113.19;;;23.29;100.00
19777;BME280;10047;42.490;26.012;2023-07-31T04:51:38;100049.44;;;22.61;100.00
19777;BME280;10047;42.490;26.012;2023-07-31T04:54:04;100053.09;;;22.80;100.00
19777;BME280;10047;42.490;26.012;2023-07-31T04:56:29;100063.69;;;22.88;100.00
19777;BME280;10047;42.490;26.012;2023-07-31T04:58:54;100060.94;;;23.12;100.00
19777;BME280;10047;42.490;26.012;2023-07-31T05:01:20;100114.00;;;23.30;100.00
19777;BME280;10047;42.490;26.012;2023-07-31T05:03:45;100117.56;;;23.29;100.00
19777;BME280;10047;42.490;26.012;2023-07-31T05:06:11;100083.50;;;22.89;100.00
19777;BME280;10047;42.490;26.012;2023-07-31T05:08:37;100063.72;;;22.77;100.00
19777;BME280;10047;42.490;26.012;2023-07-31T05:11:03;100111.53;;;23.28;100.00
19777;BME280;10047;42.490;26.012;2023-07-31T05:13:28;100065.59;;;22.75;100.00
19777;BME280;10047;42.490;26.012;2023-07-31T05:15:53;100102.00;;;22.96;100.00
19777;BME280;10047;42.490;26.012;2023-07-31T05:18:19;100069.13;;;22.63;100.00
19777;BME280;10047;42.490;26.012;2023-07-31T05:20:44;100120.50;;;22.80;100.00
19777;BME280;10047;42.490;26.012;2023-07-31T05:23:10;100126.19;;;22.96;100.00
19777;BME280;10047;42.490;26.012;2023-07-31T05:25:35;100124.38;;;22.75;100.00
19777;BME280;10047;42.490;26.012;2023-07-31T05:28:00;100089.00;;;22.52;100.00
19777;BME280;10047;42.490;26.012;2023-07-31T05:30:26;100105.00;;;22.57;100.00
19777;BME280;10047;42.490;26.012;2023-07-31T05:32:52;100090.63;;;22.53;100.00
19777;BME280;10047;42.490;26.012;2023-07-31T05:35:17;100159.06;;;22.96;100.00
19777;BME280;10047;42.490;26.012;2023-07-31T05:37:42;100117.63;;;22.50;100.00
19777;BME280;10047;42.490;26.012;2023-07-31T05:40:08;100157.53;;;22.82;100.00
19777;BME280;10047;42.490;26.012;2023-07-31T05:42:34;100167.69;;;23.18;100.00
19777;BME280;10047;42.490;26.012;2023-07-31T05:45:00;100167.63;;;22.74;100.00
19777;BME280;10047;42.490;26.012;2023-07-31T05:47:26;100190.00;;;23.21;100.00
19777;BME280;10047;42.490;26.012;2023-07-31T05:49:51;100148.94;;;22.82;100.00
19777;BME280;10047;42.490;26.012;2023-07-31T05:52:18;100210.63;;;23.22;100.00
19777;BME280;10047;42.490;26.012;2023-07-31T05:54:44;100210.53;;;23.46;100.00
19777;BME280;10047;42.490;26.012;2023-07-31T05:57:11;100146.47;;;22.57;100.00
19777;BME280;10047;42.490;26.012;2023-07-31T05:59:36;100187.16;;;23.13;100.00
19777;BME280;10047;42.490;26.012;2023-07-31T06:02:02;100147.50;;;23.00;100.00
19777;BME280;10047;42.490;26.012;2023-07-31T06:04:27;100216.41;;;23.26;100.00
19777;BME280;10047;42.490;26.012;2023-07-31T06:06:53;100153.16;;;22.94;100.00
19777;BME280;10047;42.490;26.012;2023-07-31T06:09:18;100151.66;;;22.91;100.00
19777;BME280;10047;42.490;26.012;2023-07-31T06:11:45;100198.34;;;23.24;100.00
19777;BME280;10047;42.490;26.012;2023-07-31T06:14:11;100214.19;;;23.33;100.00
19777;BME280;10047;42.490;26.012;2023-07-31T06:16:36;100154.94;;;23.04;100.00
19777;BME280;10047;42.490;26.012;2023-07-31T06:19:01;100153.53;;;23.22;100.00
19777;BME280;10047;42.490;26.012;2023-07-31T06:21:27;100148.47;;;23.10;100.00
19777;BME280;10047;42.490;26.012;2023-07-31T06:23:53;100206.97;;;23.25;100.00
19777;BME280;10047;42.490;26.012;2023-07-31T06:26:18;100210.72;;;23.10;100.00
19777;BME280;10047;42.490;26.012;2023-07-31T06:28:44;100132.25;;;22.62;100.00
19777;BME280;10047;42.490;26.012;2023-07-31T06:31:09;100228.53;;;23.25;100.00
19777;BME280;10047;42.490;26.012;2023-07-31T06:33:35;100193.03;;;23.04;100.00
19777;BME280;10047;42.490;26.012;2023-07-31T06:36:00;100200.47;;;23.08;100.00
19777;BME280;10047;42.490;26.012;2023-07-31T06:38:26;100216.28;;;23.16;100.00
19777;BME280;10047;42.490;26.012;2023-07-31T06:40:52;100183.03;;;22.99;100.00
19777;BME280;10047;42.490;26.012;2023-07-31T06:43:18;100275.44;;;23.57;100.00
19777;BME280;10047;42.490;26.012;2023-07-31T06:45:43;100284.72;;;23.26;100.00
19777;BME280;10047;42.490;26.012;2023-07-31T06:48:09;100295.38;;;23.46;100.00
19777;BME280;10047;42.490;26.012;2023-07-31T06:50:35;100266.56;;;22.81;100.00
19777;BME280;10047;42.490;26.012;2023-07-31T06:53:00;100246.25;;;22.64;100.00
19777;BME280;10047;42.490;26.012;2023-07-31T06:55:26;100319.47;;;22.78;100.00
19777;BME280;10047;42.490;26.012;2023-07-31T06:57:54;100456.16;;;22.89;100.00
19777;BME280;10047;42.490;26.012;2023-07-31T07:00:21;100474.88;;;22.69;100.00
19777;BME280;10047;42.490;26.012;2023-07-31T07:02:47;100569.66;;;22.60;100.00
19777;BME280;10047;42.490;26.012;2023-07-31T07:05:13;100627.53;;;22.48;100.00
19777;BME280;10047;42.490;26.012;2023-07-31T07:07:39;100722.78;;;22.44;100.00
19777;BME280;10047;42.490;26.012;2023-07-31T07:10:04;100836.66;;;22.48;100.00
19777;BME280;10047;42.490;26.012;2023-07-31T07:12:31;100848.44;;;22.25;100.00
19777;BME280;10047;42.490;26.012;2023-07-31T07:14:57;100935.06;;;22.49;100.00
19777;BME280;10047;42.490;26.012;2023-07-31T07:17:26;100978.13;;;22.52;100.00
19777;BME280;10047;42.490;26.012;2023-07-31T07:19:52;100968.75;;;22.35;100.00
19777;BME280;10047;42.490;26.012;2023-07-31T07:22:18;100978.94;;;22.10;100.00
19777;BME280;10047;42.490;26.012;2023-07-31T07:24:43;100992.00;;;22.08;100.00
19777;BME280;10047;42.490;26.012;2023-07-31T07:27:09;101007.69;;;21.91;100.00
19777;BME280;10047;42.490;26.012;2023-07-31T07:29:34;101065.28;;;22.24;100.00
19777;BME280;10047;42.490;26.012;2023-07-31T07:32:00;101128.31;;;22.25;100.00
19777;BME280;10047;42.490;26.012;2023-07-31T07:34:26;101255.06;;;22.29;100.00
19777;BME280;10047;42.490;26.012;2023-07-31T07:36:52;101266.78;;;22.21;100.00
19777;BME280;10047;42.490;26.012;2023-07-31T07:39:17;101129.84;;;22.43;100.00
19777;BME280;10047;42.490;26.012;2023-07-31T07:41:42;101061.13;;;22.22;100.00
19777;BME280;10047;42.490;26.012;2023-07-31T07:44:08;100964.09;;;21.84;100.00
19777;BME280;10047;42.490;26.012;2023-07-31T07:46:34;100962.75;;;22.06;100.00
19777;BME280;10047;42.490;26.012;2023-07-31T07:48:59;100907.41;;;21.93;100.00
19777;BME280;10047;42.490;26.012;2023-07-31T07:51:24;101151.63;;;21.64;100.00
19777;BME280;10047;42.490;26.012;2023-07-31T07:53:50;101318.50;;;21.91;100.00
19777;BME280;10047;42.490;26.012;2023-07-31T07:56:16;101670.78;;;21.91;100.00
19777;BME280;10047;42.490;26.012;2023-07-31T07:58:41;101760.31;;;21.41;100.00
19777;BME280;10047;42.490;26.012;2023-07-31T08:01:06;102564.59;;;21.67;100.00
19777;BME280;10047;42.490;26.012;2023-07-31T08:03:32;102649.69;;;21.77;100.00
19777;BME280;10047;42.490;26.012;2023-07-31T08:05:59;102296.44;;;21.09;100.00
19777;BME280;10047;42.490;26.012;2023-07-31T08:08:24;102373.13;;;21.61;100.00
19777;BME280;10047;42.490;26.012;2023-07-31T08:10:50;102356.25;;;21.98;100.00
19777;BME280;10047;42.490;26.012;2023-07-31T08:13:15;102306.38;;;21.92;100.00
19777;BME280;10047;42.490;26.012;2023-07-31T08:15:41;102170.28;;;21.60;100.00
19777;BME280;10047;42.490;26.012;2023-07-31T08:18:06;101848.94;;;21.26;100.00
19777;BME280;10047;42.490;26.012;2023-07-31T08:20:32;101943.38;;;21.98;100.00
19777;BME280;10047;42.490;26.012;2023-07-31T08:22:57;101900.84;;;22.22;100.00
19777;BME280;10047;42.490;26.012;2023-07-31T08:25:23;101654.31;;;22.28;100.00
19777;BME280;10047;42.490;26.012;2023-07-31T08:27:48;101273.22;;;22.29;100.00
19777;BME280;10047;42.490;26.012;2023-07-31T08:30:14;101308.56;;;22.30;100.00
19777;BME280;10047;42.490;26.012;2023-07-31T08:32:39;101296.00;;;22.70;100.00
19777;BME280;10047;42.490;26.012;2023-07-31T08:35:05;101193.63;;;22.31;100.00
19777;BME280;10047;42.490;26.012;2023-07-31T08:37:30;101145.97;;;22.78;100.00
19777;BME280;10047;42.490;26.012;2023-07-31T08:39:56;101101.56;;;22.68;100.00
19777;BME280;10047;42.490;26.012;2023-07-31T08:42:21;101031.53;;;22.82;100.00
19777;BME280;10047;42.490;26.012;2023-07-31T08:44:47;100988.13;;;23.12;100.00
19777;BME280;10047;42.490;26.012;2023-07-31T08:47:13;100941.97;;;23.57;100.00
19777;BME280;10047;42.490;26.012;2023-07-31T08:49:41;100828.94;;;23.51;100.00
19777;BME280;10047;42.490;26.012;2023-07-31T08:52:07;100831.50;;;23.89;100.00
19777;BME280;10047;42.490;26.012;2023-07-31T08:54:33;100797.78;;;23.51;100.00
19777;BME280;10047;42.490;26.012;2023-07-31T08:56:59;100842.34;;;23.70;100.00
19777;BME280;10047;42.490;26.012;2023-07-31T08:59:28;100828.16;;;23.99;100.00
19777;BME280;10047;42.490;26.012;2023-07-31T09:01:55;100855.31;;;24.08;100.00
19777;BME280;10047;42.490;26.012;2023-07-31T09:04:22;100847.28;;;24.24;100.00
19777;BME280;10047;42.490;26.012;2023-07-31T09:06:48;100789.63;;;23.93;100.00
19777;BME280;10047;42.490;26.012;2023-07-31T09:09:14;100823.41;;;24.06;100.00
19777;BME280;10047;42.490;26.012;2023-07-31T09:11:40;100740.66;;;23.51;100.00
19777;BME280;10047;42.490;26.012;2023-07-31T09:14:06;100724.75;;;24.52;100.00
19777;BME280;10047;42.490;26.012;2023-07-31T09:16:34;100620.13;;;23.90;100.00
19777;BME280;10047;42.490;26.012;2023-07-31T09:18:59;100736.78;;;24.76;100.00
19777;BME280;10047;42.490;26.012;2023-07-31T09:21:27;100745.16;;;25.37;100.00
19777;BME280;10047;42.490;26.012;2023-07-31T09:23:53;100766.50;;;25.53;100.00
19777;BME280;10047;42.490;26.012;2023-07-31T09:26:35;100929.34;;;25.69;100.00
19777;BME280;10047;42.490;26.012;2023-07-31T09:29:04;100949.63;;;25.08;100.00
19777;BME280;10047;42.490;26.012;2023-07-31T09:31:42;100968.19;;;25.14;100.00
19777;BME280;10047;42.490;26.012;2023-07-31T09:34:08;100947.78;;;25.21;100.00
19777;BME280;10047;42.490;26.012;2023-07-31T09:36:46;101022.69;;;25.64;100.00
19777;BME280;10047;42.490;26.012;2023-07-31T09:39:13;100997.28;;;25.08;100.00
19777;BME280;10047;42.490;26.012;2023-07-31T09:41:41;100971.03;;;24.87;100.00
19777;BME280;10047;42.490;26.012;2023-07-31T09:44:07;101116.94;;;25.93;100.00
19777;BME280;10047;42.490;26.012;2023-07-31T09:46:35;101337.88;;;26.98;100.00
19777;BME280;10047;42.490;26.012;2023-07-31T09:49:19;101707.28;;;27.19;100.00
19777;BME280;10047;42.490;26.012;2023-07-31T09:51:44;101685.41;;;26.57;100.00
19777;BME280;10047;42.490;26.012;2023-07-31T09:54:11;101862.59;;;27.66;100.00
19777;BME280;10047;42.490;26.012;2023-07-31T09:56:47;101742.28;;;27.29;100.00
19777;BME280;10047;42.490;26.012;2023-07-31T09:59:18;101833.16;;;27.87;100.00
19777;BME280;10047;42.490;26.012;2023-07-31T10:01:45;101596.13;;;27.63;100.00
19777;BME280;10047;42.490;26.012;2023-07-31T10:04:14;101076.91;;;28.03;100.00
19777;BME280;10047;42.490;26.012;2023-07-31T10:06:40;100816.78;;;28.45;100.00
19777;BME280;10047;42.490;26.012;2023-07-31T10:09:09;100733.38;;;26.93;100.00
19777;BME280;10047;42.490;26.012;2023-07-31T10:11:43;100850.81;;;27.35;100.00
19777;BME280;10047;42.490;26.012;2023-07-31T10:14:10;101090.25;;;28.62;100.00
19777;BME280;10047;42.490;26.012;2023-07-31T10:16:38;101713.78;;;28.22;100.00
19777;BME280;10047;42.490;26.012;2023-07-31T10:19:05;101770.66;;;28.08;100.00
19777;BME280;10047;42.490;26.012;2023-07-31T10:21:32;101840.34;;;27.35;100.00
19777;BME280;10047;42.490;26.012;2023-07-31T10:24:03;101986.44;;;27.77;100.00
19777;BME280;10047;42.490;26.012;2023-07-31T10:26:29;101967.53;;;28.24;100.00
19777;BME280;10047;42.490;26.012;2023-07-31T10:28:56;101852.66;;;28.32;100.00
19777;BME280;10047;42.490;26.012;2023-07-31T10:31:23;101856.44;;;27.41;100.00
19777;BME280;10047;42.490;26.012;2023-07-31T10:33:50;101871.28;;;27.66;100.00
19777;BME280;10047;42.490;26.012;2023-07-31T10:36:20;101871.38;;;28.86;100.00
19777;BME280;10047;42.490;26.012;2023-07-31T10:38:48;101799.28;;;28.69;100.00
19777;BME280;10047;42.490;26.012;2023-07-31T10:41:14;101778.09;;;28.72;100.00
19777;BME280;10047;42.490;26.012;2023-07-31T10:43:40;101745.50;;;28.18;100.00
19777;BME280;10047;42.490;26.012;2023-07-31T10:46:12;101768.59;;;28.82;100.00
19777;BME280;10047;42.490;26.012;2023-07-31T10:48:39;101683.81;;;28.83;100.00
19777;BME280;10047;42.490;26.012;2023-07-31T10:51:08;101682.03;;;28.03;100.00
19777;BME280;10047;42.490;26.012;2023-07-31T10:53:38;101718.00;;;28.47;100.00
19777;BME280;10047;42.490;26.012;2023-07-31T10:56:12;101758.03;;;29.94;100.00
19777;BME280;10047;42.490;26.012;2023-07-31T10:58:43;101627.75;;;29.19;100.00
19777;BME280;10047;42.490;26.012;2023-07-31T11:01:09;101560.53;;;29.07;100.00
19777;BME280;10047;42.490;26.012;2023-07-31T11:03:45;101598.25;;;30.01;100.00
19777;BME280;10047;42.490;26.012;2023-07-31T11:06:12;101501.72;;;29.43;100.00
19777;BME280;10047;42.490;26.012;2023-07-31T11:08:43;101435.38;;;29.52;100.00
19777;BME280;10047;42.490;26.012;2023-07-31T11:11:10;101410.84;;;30.13;100.00
19777;BME280;10047;42.490;26.012;2023-07-31T11:13:44;101388.59;;;30.57;100.00
19777;BME280;10047;42.490;26.012;2023-07-31T11:16:11;101253.00;;;30.46;100.00
19777;BME280;10047;42.490;26.012;2023-07-31T11:18:44;101206.75;;;30.92;100.00
19777;BME280;10047;42.490;26.012;2023-07-31T11:21:14;101074.81;;;29.76;100.00
19777;BME280;10047;42.490;26.012;2023-07-31T11:23:40;101137.41;;;30.65;100.00
19777;BME280;10047;42.490;26.012;2023-07-31T11:26:06;101103.72;;;31.15;100.00
19777;BME280;10047;42.490;26.012;2023-07-31T11:28:34;100986.97;;;30.63;100.00
19777;BME280;10047;42.490;26.012;2023-07-31T11:31:00;100985.50;;;30.88;100.00
19777;BME280;10047;42.490;26.012;2023-07-31T11:33:26;100941.38;;;30.37;100.00
19777;BME280;10047;42.490;26.012;2023-07-31T11:35:51;100866.50;;;30.33;100.00
19777;BME280;10047;42.490;26.012;2023-07-31T11:38:24;100864.44;;;30.54;100.00
19777;BME280;10047;42.490;26.012;2023-07-31T11:40:51;100888.41;;;31.73;100.00
19777;BME280;10047;42.490;26.012;2023-07-31T11:43:17;100838.16;;;31.33;100.00
19777;BME280;10047;42.490;26.012;2023-07-31T11:45:54;100749.59;;;31.67;100.00
19777;BME280;10047;42.490;26.012;2023-07-31T11:48:21;100700.25;;;31.61;100.00
19777;BME280;10047;42.490;26.012;2023-07-31T11:50:48;100614.44;;;31.18;100.00
19777;BME280;10047;42.490;26.012;2023-07-31T11:53:15;100627.94;;;31.81;100.00
19777;BME280;10047;42.490;26.012;2023-07-31T11:55:42;100564.09;;;31.39;100.00
19777;BME280;10047;42.490;26.012;2023-07-31T11:58:09;100549.16;;;32.04;100.00
19777;BME280;10047;42.490;26.012;2023-07-31T12:00:34;100515.28;;;31.60;100.00
19777;BME280;10047;42.490;26.012;2023-07-31T12:03:00;100488.41;;;32.21;100.00
19777;BME280;10047;42.490;26.012;2023-07-31T12:05:25;100538.44;;;30.49;100.00
19777;BME280;10047;42.490;26.012;2023-07-31T12:07:54;100611.84;;;30.85;100.00
19777;BME280;10047;42.490;26.012;2023-07-31T12:10:38;100606.00;;;30.99;100.00
19777;BME280;10047;42.490;26.012;2023-07-31T12:13:08;100617.66;;;30.02;100.00
19777;BME280;10047;42.490;26.012;2023-07-31T12:15:42;100606.81;;;29.79;100.00
19777;BME280;10047;42.490;26.012;2023-07-31T12:18:10;100608.09;;;29.75;100.00
19777;BME280;10047;42.490;26.012;2023-07-31T12:20:43;100595.00;;;29.48;100.00
19777;BME280;10047;42.490;26.012;2023-07-31T12:23:17;100581.09;;;29.65;100.00
19777;BME280;10047;42.490;26.012;2023-07-31T12:25:42;100565.31;;;30.43;100.00
19777;BME280;10047;42.490;26.012;2023-07-31T12:28:08;100516.88;;;30.38;100.00
19777;BME280;10047;42.490;26.012;2023-07-31T12:30:38;100479.72;;;31.24;100.00
19777;BME280;10047;42.490;26.012;2023-07-31T12:33:11;100448.66;;;30.88;100.00
19777;BME280;10047;42.490;26.012;2023-07-31T12:35:38;100419.28;;;31.48;100.00
19777;BME280;10047;42.490;26.012;2023-07-31T12:38:05;100338.06;;;30.57;100.00